createdAt,value
2019-04-21T00:01:16.469Z,51.40
2019-04-21T00:03:52.113Z,45.60
2019-04-21T00:06:37.055Z,50.60
2019-04-21T00:09:11.199Z,51.00
2019-04-21T00:11:42.147Z,51.50
2019-04-21T00:14:05.784Z,48.10
2019-04-21T00:16:36.907Z,44.90
2019-04-21T00:19:28.808Z,49.70
2019-04-21T00:22:08.657Z,48.70
2019-04-21T00:24:45.108Z,52.20
2019-04-21T00:27:20.251Z,48.60
2019-04-21T00:29:51.913Z,48.00
2019-04-21T00:32:19.483Z,50.80
2019-04-21T00:34:43.257Z,47.90
2019-04-21T00:37:22.479Z,48.20
2019-04-21T00:40:03.684Z,50.10
2019-04-21T00:42:34.270Z,47.50
2019-04-21T00:45:04.816Z,49.80
2019-04-21T00:47:45.878Z,49.40
2019-04-21T00:50:10.828Z,48.10
2019-04-21T00:53:04.713Z,50.90
2019-04-21T00:55:44.517Z,47.10
2019-04-21T00:58:20.775Z,49.00
2019-04-21T01:00:46.200Z,51.30
2019-04-21T01:03:24.700Z,50.30
2019-04-21T01:05:52.401Z,49.50
2019-04-21T01:08:21.432Z,48.90
2019-04-21T01:10:43.995Z,48.70
2019-04-21T01:13:27.842Z,48.60
2019-04-21T01:15:59.263Z,48.50
2019-04-21T01:18:31.360Z,48.70
2019-04-21T01:20:38.163Z,48.90
2019-04-21T01:23:08.464Z,48.90
2019-04-21T01:25:44.987Z,49.00
2019-04-21T01:28:29.283Z,49.40
2019-04-21T01:31:03.436Z,49.10
2019-04-21T01:33:39.802Z,49.10
2019-04-21T01:36:03.811Z,49.30
2019-04-21T01:38:44.334Z,49.30
2019-04-21T01:41:16.288Z,49.40
2019-04-21T01:43:39.446Z,49.40
2019-04-21T01:46:18.026Z,49.50
2019-04-21T01:48:44.387Z,49.70
2019-04-21T01:51:15.623Z,49.70
2019-04-21T01:54:03.835Z,49.80
2019-04-21T01:56:55.232Z,49.90
2019-04-21T01:59:25.690Z,50.10
2019-04-21T02:02:05.066Z,50.30
2019-04-21T02:04:41.731Z,50.40
2019-04-21T02:07:12.446Z,50.50
2019-04-21T02:09:59.366Z,50.40
2019-04-21T02:12:14.763Z,50.40
2019-04-21T02:14:56.381Z,50.40
2019-04-21T02:17:18.600Z,50.50
2019-04-21T02:19:41.817Z,50.60
2019-04-21T02:22:20.830Z,50.70
2019-04-21T02:25:08.609Z,50.70
2019-04-21T02:27:26.177Z,51.10
2019-04-21T02:29:55.639Z,50.50
2019-04-21T02:32:42.129Z,51.50
2019-04-21T02:35:25.585Z,51.30
2019-04-21T02:37:46.221Z,51.90
2019-04-21T02:42:46.388Z,51.90
2019-04-21T02:45:17.687Z,51.10
2019-04-21T02:48:06.312Z,52.40
2019-04-21T02:50:19.182Z,52.20
2019-04-21T02:57:59.386Z,51.90
2019-04-21T03:03:22.931Z,51.50
2019-04-21T03:06:00.406Z,51.60
2019-04-21T03:08:33.750Z,51.50
2019-04-21T03:11:04.886Z,51.40
2019-04-21T03:13:43.035Z,51.30
2019-04-21T03:18:40.154Z,51.40
2019-04-21T03:21:07.566Z,51.50
2019-04-21T03:23:51.705Z,51.60
2019-04-21T03:26:20.710Z,51.70
2019-04-21T03:28:46.019Z,52.60
2019-04-21T03:31:35.933Z,52.10
2019-04-21T03:34:29.471Z,52.10
2019-04-21T03:38:46.893Z,52.20
2019-04-21T03:41:33.652Z,52.10
2019-04-21T03:43:58.887Z,52.00
2019-04-21T03:46:34.487Z,52.10
2019-04-21T03:54:03.605Z,52.60
2019-04-21T04:02:23.050Z,52.30
2019-04-21T04:04:56.860Z,51.30
2019-04-21T04:10:26.435Z,53.00
2019-04-21T04:12:52.661Z,53.00
2019-04-21T04:15:31.167Z,52.80
2019-04-21T04:17:54.229Z,52.50
2019-04-21T04:20:28.100Z,52.30
2019-04-21T04:23:13.452Z,52.40
2019-04-21T04:30:39.471Z,52.50
2019-04-21T04:32:56.450Z,52.60
2019-04-21T04:35:45.798Z,52.80
2019-04-21T04:38:13.569Z,53.20
2019-04-21T04:43:47.993Z,52.90
2019-04-21T04:46:02.655Z,52.80
2019-04-21T04:48:34.862Z,52.90
2019-04-21T04:51:01.937Z,52.90
2019-04-21T04:59:10.715Z,49.00
2019-04-21T05:09:09.390Z,51.70
2019-04-21T05:19:16.009Z,49.90
2019-04-21T05:24:01.357Z,48.80
2019-04-21T05:26:33.155Z,48.30
2019-04-21T05:29:01.889Z,47.70
2019-04-21T05:31:49.566Z,48.90
2019-04-21T05:34:27.593Z,48.30
2019-04-21T05:37:30.548Z,48.20
2019-04-21T05:40:13.250Z,48.00
2019-04-21T05:42:39.580Z,47.40
2019-04-21T05:45:33.420Z,46.70
2019-04-21T05:50:46.268Z,46.70
2019-04-21T05:53:25.360Z,46.60
2019-04-21T05:55:56.930Z,44.70
2019-04-21T05:58:28.832Z,45.90
2019-04-21T06:01:26.971Z,45.50
2019-04-21T06:03:47.755Z,45.50
2019-04-21T06:06:24.475Z,44.90
2019-04-21T06:16:21.487Z,42.10
2019-04-21T06:18:53.997Z,45.20
2019-04-21T06:21:22.219Z,46.90
2019-04-21T06:23:51.419Z,46.30
2019-04-21T06:26:54.925Z,46.20
2019-04-21T06:29:01.213Z,45.90
2019-04-21T06:32:05.580Z,45.00
2019-04-21T06:34:06.747Z,45.20
2019-04-21T06:37:15.587Z,41.80
2019-04-21T06:39:44.942Z,42.30
2019-04-21T06:42:09.769Z,42.60
2019-04-21T06:44:48.232Z,42.60
2019-04-21T06:47:24.693Z,46.00
2019-04-21T06:49:45.688Z,44.90
2019-04-21T06:54:49.525Z,43.70
2019-04-21T06:57:26.135Z,44.70
2019-04-21T06:59:53.066Z,44.20
2019-04-21T07:05:02.351Z,44.90
2019-04-21T07:07:33.809Z,46.50
2019-04-21T07:10:04.846Z,43.60
2019-04-21T07:12:30.368Z,45.80
2019-04-21T07:15:03.358Z,43.90
2019-04-21T07:17:32.608Z,44.90
2019-04-21T07:22:41.653Z,44.30
2019-04-21T07:25:14.091Z,44.10
2019-04-21T07:27:46.683Z,44.70
2019-04-21T07:30:18.854Z,43.00
2019-04-21T07:35:28.837Z,43.90
2019-04-21T07:37:58.977Z,43.30
2019-04-21T07:40:15.111Z,43.80
2019-04-21T07:42:52.612Z,42.90
2019-04-21T07:45:19.527Z,43.10
2019-04-21T07:48:14.017Z,40.90
2019-04-21T07:50:51.691Z,43.40
2019-04-21T07:53:36.479Z,43.80
2019-04-21T07:55:41.083Z,41.50
2019-04-21T07:58:26.606Z,42.00
2019-04-21T08:01:07.513Z,40.50
2019-04-21T08:03:33.628Z,43.20
2019-04-21T08:06:28.359Z,40.90
2019-04-21T08:08:35.495Z,41.80
2019-04-21T08:11:10.634Z,40.10
2019-04-21T08:13:48.788Z,39.60
2019-04-21T08:16:17.461Z,39.40
2019-04-21T08:18:52.493Z,40.70
2019-04-21T08:21:35.436Z,40.20
2019-04-21T08:24:07.702Z,41.40
2019-04-21T08:26:58.169Z,38.50
2019-04-21T08:29:19.176Z,38.90
2019-04-21T08:31:49.997Z,38.60
2019-04-21T08:34:14.099Z,39.70
2019-04-21T08:36:44.801Z,39.30
2019-04-21T08:39:19.519Z,38.30
2019-04-21T08:41:52.363Z,37.50
2019-04-21T08:44:26.872Z,35.50
2019-04-21T08:46:52.550Z,39.20
2019-04-21T08:49:22.338Z,38.80
2019-04-21T08:52:05.191Z,37.50
2019-04-21T08:54:29.125Z,35.10
2019-04-21T08:57:12.448Z,41.60
2019-04-21T08:59:55.226Z,36.20
2019-04-21T09:02:29.839Z,40.30
2019-04-21T09:05:01.466Z,38.20
2019-04-21T09:07:33.143Z,35.70
2019-04-21T09:10:03.216Z,36.80
2019-04-21T09:12:34.695Z,37.70
2019-04-21T09:15:08.384Z,37.10
2019-04-21T09:17:33.039Z,36.10
2019-04-21T09:20:16.917Z,37.00
2019-04-21T09:22:44.171Z,36.10
2019-04-21T09:25:19.766Z,37.40
2019-04-21T09:27:47.027Z,37.00
2019-04-21T09:30:04.458Z,36.20
2019-04-21T09:32:34.836Z,36.80
2019-04-21T09:35:10.295Z,38.80
2019-04-21T09:37:45.886Z,37.80
2019-04-21T09:40:08.994Z,38.10
2019-04-21T09:42:47.531Z,35.50
2019-04-21T09:45:12.517Z,37.00
2019-04-21T09:47:54.034Z,36.70
2019-04-21T09:50:17.389Z,36.30
2019-04-21T09:52:54.248Z,38.70
2019-04-21T09:55:22.549Z,36.40
2019-04-21T09:57:55.136Z,38.10
2019-04-21T10:00:27.215Z,38.70
2019-04-21T10:03:00.926Z,38.20
2019-04-21T10:05:27.659Z,37.90
2019-04-21T10:07:57.518Z,40.10
2019-04-21T10:10:29.780Z,36.20
2019-04-21T10:13:03.332Z,38.00
2019-04-21T10:15:35.555Z,37.90
2019-04-21T10:18:10.843Z,40.10
2019-04-21T10:20:42.793Z,40.70
2019-04-21T10:23:13.499Z,37.60
2019-04-21T10:25:43.498Z,38.00
2019-04-21T10:28:14.995Z,36.20
2019-04-21T10:30:44.914Z,38.60
2019-04-21T10:33:14.695Z,37.50
2019-04-21T10:35:44.730Z,38.40
2019-04-21T10:38:24.004Z,36.20
2019-04-21T10:40:45.849Z,36.20
2019-04-21T10:43:17.683Z,36.50
2019-04-21T10:45:48.858Z,36.70
2019-04-21T10:48:18.906Z,36.00
2019-04-21T10:50:50.347Z,38.50
2019-04-21T10:53:24.826Z,38.00
2019-04-21T10:56:08.216Z,39.30
2019-04-21T10:58:32.180Z,38.60
2019-04-21T11:01:10.671Z,37.30
2019-04-21T11:03:53.376Z,40.00
2019-04-21T11:06:24.464Z,34.60
2019-04-21T11:08:57.198Z,36.50
2019-04-21T11:11:25.922Z,36.30
2019-04-21T11:13:56.857Z,37.40
2019-04-21T11:16:26.985Z,40.60
2019-04-21T11:18:57.942Z,35.80
2019-04-21T11:21:29.047Z,37.90
2019-04-21T11:24:00.132Z,35.70
2019-04-21T11:26:31.834Z,35.60
2019-04-21T11:29:03.133Z,35.70
2019-04-21T11:31:33.457Z,35.20
2019-04-21T11:34:03.228Z,38.70
2019-04-21T11:36:33.234Z,34.90
2019-04-21T11:39:31.597Z,38.00
2019-04-21T11:41:52.108Z,34.40
2019-04-21T11:44:24.657Z,33.90
2019-04-21T11:46:56.515Z,38.30
2019-04-21T11:49:30.230Z,36.10
2019-04-21T11:51:58.732Z,34.20
2019-04-21T11:54:28.786Z,37.40
2019-04-21T11:56:59.812Z,39.20
2019-04-21T11:59:29.948Z,34.20
2019-04-21T12:01:59.563Z,34.60
2019-04-21T12:04:29.535Z,36.40
2019-04-21T12:06:59.833Z,33.80
2019-04-21T12:09:29.478Z,37.00
2019-04-21T12:11:59.220Z,35.50
2019-04-21T12:14:30.218Z,32.90
2019-04-21T12:17:03.035Z,35.10
2019-04-21T12:19:32.731Z,34.70
2019-04-21T12:22:11.344Z,35.50
2019-04-21T12:24:37.993Z,31.10
2019-04-21T12:27:09.849Z,32.20
2019-04-21T12:29:39.902Z,32.90
2019-04-21T12:32:28.414Z,31.00
2019-04-21T12:34:59.713Z,29.60
2019-04-21T12:37:30.992Z,32.00
2019-04-21T12:40:01.056Z,33.90
2019-04-21T12:42:32.417Z,29.20
2019-04-21T12:45:03.490Z,30.30
2019-04-21T12:47:34.095Z,30.80
2019-04-21T12:50:06.676Z,36.20
2019-04-21T12:52:37.715Z,31.50
2019-04-21T12:55:09.611Z,38.90
2019-04-21T12:57:39.411Z,29.00
2019-04-21T13:00:13.158Z,31.20
2019-04-21T13:02:43.556Z,34.10
2019-04-21T13:05:13.865Z,30.00
2019-04-21T13:07:46.746Z,36.10
2019-04-21T13:10:18.140Z,32.20
2019-04-21T13:12:48.131Z,29.50
2019-04-21T13:15:18.051Z,34.70
2019-04-21T13:17:50.223Z,33.30
2019-04-21T13:20:21.510Z,37.00
2019-04-21T13:22:52.381Z,39.80
2019-04-21T13:25:23.522Z,28.80
2019-04-21T13:27:54.387Z,31.00
2019-04-21T13:30:24.704Z,31.30
2019-04-21T13:32:55.484Z,31.80
2019-04-21T13:35:26.775Z,29.80
2019-04-21T13:37:56.472Z,35.20
2019-04-21T13:41:02.451Z,32.20
2019-04-21T13:43:17.272Z,37.50
2019-04-21T13:45:47.757Z,33.10
2019-04-21T13:48:18.887Z,34.70
2019-04-21T13:50:49.087Z,35.00
2019-04-21T13:53:18.747Z,35.00
2019-04-21T13:55:48.641Z,39.30
2019-04-21T13:58:20.162Z,36.50
2019-04-21T14:00:50.510Z,38.50
2019-04-21T14:03:23.437Z,37.90
2019-04-21T14:05:54.144Z,34.00
2019-04-21T14:08:25.271Z,31.40
2019-04-21T14:10:55.626Z,31.30
2019-04-21T14:13:26.793Z,40.80
2019-04-21T14:15:57.845Z,34.90
2019-04-21T14:18:28.862Z,35.60
2019-04-21T14:20:58.503Z,35.80
2019-04-21T14:23:34.447Z,35.30
2019-04-21T14:25:59.763Z,34.10
2019-04-21T14:28:30.284Z,35.20
2019-04-21T14:31:02.119Z,38.40
2019-04-21T14:33:34.201Z,41.40
2019-04-21T14:36:05.195Z,34.60
2019-04-21T14:38:36.527Z,35.50
2019-04-21T14:41:08.287Z,39.20
2019-04-21T14:43:38.526Z,39.50
2019-04-21T14:46:17.198Z,36.50
2019-04-21T14:49:05.538Z,37.30
2019-04-21T14:51:45.205Z,38.10
2019-04-21T14:54:44.589Z,34.40
2019-04-21T14:57:15.509Z,33.00
2019-04-21T14:59:46.780Z,36.90
2019-04-21T15:02:20.260Z,34.90
2019-04-21T15:04:55.651Z,34.00
2019-04-21T15:07:25.495Z,36.80
2019-04-21T15:10:04.658Z,38.10
2019-04-21T15:12:27.814Z,38.60
2019-04-21T15:15:02.241Z,35.30
2019-04-21T15:17:33.786Z,33.30
2019-04-21T15:20:10.324Z,37.90
2019-04-21T15:22:36.444Z,40.60
2019-04-21T15:25:06.202Z,41.70
2019-04-21T15:27:36.908Z,36.90
2019-04-21T15:30:07.030Z,40.00
2019-04-21T15:32:36.787Z,39.00
2019-04-21T15:35:06.914Z,40.80
2019-04-21T15:37:37.853Z,39.90
2019-04-21T15:40:18.196Z,41.60
2019-04-21T15:42:42.205Z,36.90
2019-04-21T15:45:14.610Z,34.30
2019-04-21T15:47:46.199Z,43.80
2019-04-21T15:50:20.090Z,37.20
2019-04-21T15:52:51.804Z,36.20
2019-04-21T15:55:50.950Z,43.30
2019-04-21T15:59:00.711Z,39.50
2019-04-21T16:01:38.863Z,36.60
2019-04-21T16:04:08.831Z,36.30
2019-04-21T16:06:39.390Z,33.80
2019-04-21T16:09:14.938Z,35.40
2019-04-21T16:11:44.052Z,35.60
2019-04-21T16:14:14.508Z,36.70
2019-04-21T16:16:45.360Z,34.10
2019-04-21T16:19:16.483Z,34.70
2019-04-21T16:21:46.522Z,34.60
2019-04-21T16:24:21.117Z,36.30
2019-04-21T16:26:54.494Z,35.20
2019-04-21T16:29:25.328Z,35.70
2019-04-21T16:31:55.235Z,35.90
2019-04-21T16:34:36.069Z,35.00
2019-04-21T16:36:56.490Z,37.20
2019-04-21T16:39:27.267Z,36.90
2019-04-21T16:41:58.193Z,35.90
2019-04-21T16:44:29.298Z,35.90
2019-04-21T16:46:59.318Z,36.10
2019-04-21T16:49:29.588Z,36.90
2019-04-21T16:52:20.591Z,36.40
2019-04-21T16:54:54.266Z,36.70
2019-04-21T16:57:35.658Z,37.00
2019-04-21T17:00:10.746Z,36.70
2019-04-21T17:02:40.802Z,36.90
2019-04-21T17:05:10.402Z,37.30
2019-04-21T17:07:40.951Z,37.60
2019-04-21T17:10:10.951Z,37.30
2019-04-21T17:12:41.711Z,37.40
2019-04-21T17:15:32.278Z,37.30
2019-04-21T17:18:05.928Z,38.50
2019-04-21T17:20:30.962Z,38.50
2019-04-21T17:22:49.608Z,38.40
2019-04-21T17:25:21.666Z,38.80
2019-04-21T17:27:51.385Z,38.40
2019-04-21T17:30:22.316Z,39.40
2019-04-21T17:32:53.666Z,39.10
2019-04-21T17:35:23.143Z,39.40
2019-04-21T17:37:54.036Z,39.10
2019-04-21T17:40:26.324Z,39.20
2019-04-21T17:43:02.077Z,39.00
2019-04-21T17:45:28.894Z,39.50
2019-04-21T17:48:03.317Z,39.40
2019-04-21T17:50:45.522Z,39.50
2019-04-21T17:53:27.895Z,39.30
2019-04-21T17:56:05.276Z,40.00
2019-04-21T17:58:33.274Z,39.90
2019-04-21T18:01:14.012Z,40.00
2019-04-21T18:06:06.291Z,39.10
2019-04-21T18:08:50.666Z,39.30
2019-04-21T18:11:06.031Z,39.40
2019-04-21T18:13:30.587Z,39.90
2019-04-21T18:16:11.074Z,40.30
2019-04-21T18:18:32.882Z,40.60
2019-04-21T18:21:18.684Z,40.20
2019-04-21T18:24:07.017Z,41.00
2019-04-21T18:26:39.146Z,43.40
2019-04-21T18:29:01.029Z,40.50
2019-04-21T18:31:33.785Z,42.10
2019-04-21T18:34:19.146Z,42.90
2019-04-21T18:36:53.765Z,42.50
2019-04-21T18:39:43.688Z,39.90
2019-04-21T18:42:34.123Z,39.50
2019-04-21T18:48:06.689Z,42.40
2019-04-21T18:51:02.690Z,43.10
2019-04-21T18:54:01.618Z,43.20
2019-04-21T18:56:16.844Z,43.60
2019-04-21T18:58:44.856Z,43.30
2019-04-21T19:01:20.603Z,43.40
2019-04-21T19:03:49.055Z,43.30
2019-04-21T19:06:25.697Z,43.90
2019-04-21T19:09:10.283Z,43.30
2019-04-21T19:11:34.700Z,41.30
2019-04-21T19:14:33.387Z,44.50
2019-04-21T19:22:04.561Z,44.70
2019-04-21T19:24:39.251Z,44.60
2019-04-21T19:27:12.041Z,44.70
2019-04-21T19:29:52.184Z,44.60
2019-04-21T19:32:08.612Z,44.60
2019-04-21T19:34:26.460Z,44.70
2019-04-21T19:37:03.510Z,44.10
2019-04-21T19:39:39.044Z,44.20
2019-04-21T19:42:05.664Z,44.90
2019-04-21T19:44:50.867Z,45.40
2019-04-21T19:47:25.642Z,43.20
2019-04-21T19:49:55.059Z,45.40
2019-04-21T19:52:09.692Z,45.10
2019-04-21T19:54:39.726Z,45.60
2019-04-21T19:57:06.979Z,45.40
2019-04-21T19:59:42.247Z,45.60
2019-04-21T20:02:10.089Z,46.10
2019-04-21T20:04:46.989Z,44.80
2019-04-21T20:07:30.727Z,46.50
2019-04-21T20:09:57.530Z,46.70
2019-04-21T20:12:35.545Z,44.40
2019-04-21T20:15:16.709Z,46.70
2019-04-21T20:17:39.150Z,47.00
2019-04-21T20:19:50.119Z,47.20
2019-04-21T20:22:23.984Z,46.90
2019-04-21T20:24:58.634Z,46.50
2019-04-21T20:27:35.998Z,46.40
2019-04-21T20:30:07.155Z,46.40
2019-04-21T20:32:44.034Z,46.80
2019-04-21T20:35:17.000Z,46.70
2019-04-21T20:37:41.804Z,46.80
2019-04-21T20:40:04.433Z,46.80
2019-04-21T20:42:44.075Z,46.80
2019-04-21T20:47:40.469Z,46.90
2019-04-21T20:50:16.426Z,47.10
2019-04-21T20:52:54.065Z,47.20
2019-04-21T20:55:17.692Z,47.20
2019-04-21T20:57:51.179Z,47.30
2019-04-21T21:00:31.762Z,47.40
2019-04-21T21:03:00.923Z,47.50
2019-04-21T21:05:27.586Z,47.60
2019-04-21T21:08:03.558Z,47.80
2019-04-21T21:10:34.730Z,47.70
2019-04-21T21:13:16.528Z,48.00
2019-04-21T21:15:44.243Z,48.10
2019-04-21T21:18:15.523Z,48.20
2019-04-21T21:20:43.649Z,48.30
2019-04-21T21:23:02.857Z,48.40
2019-04-21T21:26:01.866Z,48.50
2019-04-21T21:28:10.196Z,48.70
2019-04-21T21:30:43.128Z,48.70
2019-04-21T21:33:18.525Z,48.90
2019-04-21T21:35:41.155Z,48.90
2019-04-21T21:38:28.484Z,49.10
2019-04-21T21:40:49.906Z,49.10
2019-04-21T21:43:15.222Z,49.20
2019-04-21T21:45:47.466Z,49.30
2019-04-21T21:48:26.332Z,49.40
2019-04-21T21:50:50.861Z,49.50
2019-04-21T21:53:19.256Z,49.60
2019-04-21T21:55:44.758Z,49.70
2019-04-21T21:58:19.350Z,49.70
2019-04-21T22:00:49.948Z,49.90
2019-04-21T22:03:27.020Z,50.00
2019-04-21T22:05:58.319Z,50.10
2019-04-21T22:08:24.681Z,50.20
2019-04-21T22:10:55.031Z,50.30
2019-04-21T22:13:35.484Z,50.40
2019-04-21T22:16:02.908Z,50.50
2019-04-21T22:18:45.473Z,50.50
2019-04-21T22:21:13.444Z,51.10
2019-04-21T22:23:43.737Z,50.80
2019-04-21T22:26:05.400Z,50.80
2019-04-21T22:28:35.972Z,50.90
2019-04-21T22:31:15.069Z,51.10
2019-04-21T22:33:45.791Z,51.10
2019-04-21T22:36:26.682Z,51.20
2019-04-21T22:38:59.613Z,51.30
2019-04-21T22:41:24.513Z,51.30
2019-04-21T22:43:48.296Z,51.40
2019-04-21T22:46:18.054Z,51.50
2019-04-21T22:48:53.136Z,51.70
2019-04-21T22:51:27.819Z,51.70
2019-04-21T22:53:53.912Z,51.70
2019-04-21T22:56:29.068Z,51.90
2019-04-21T22:58:53.234Z,51.90
2019-04-21T23:01:28.500Z,52.00
2019-04-21T23:03:59.210Z,52.00
2019-04-21T23:06:32.312Z,52.70
2019-04-21T23:09:01.169Z,52.20
2019-04-21T23:11:37.451Z,52.30
2019-04-21T23:14:06.533Z,52.40
2019-04-21T23:16:39.675Z,52.40
2019-04-21T23:19:23.824Z,52.50
2019-04-21T23:22:00.427Z,52.50
2019-04-21T23:24:34.624Z,52.70
2019-04-21T23:26:55.262Z,52.70
2019-04-21T23:29:43.849Z,52.70
2019-04-21T23:32:02.990Z,52.70
2019-04-21T23:34:28.254Z,52.90
2019-04-21T23:37:05.126Z,52.90
2019-04-21T23:39:30.269Z,53.00
2019-04-21T23:42:00.975Z,53.00
2019-04-21T23:44:35.265Z,53.10
2019-04-21T23:47:06.579Z,53.10
2019-04-21T23:49:49.479Z,53.10
2019-04-21T23:52:13.722Z,53.20
2019-04-21T23:54:43.091Z,53.30
2019-04-21T23:57:20.877Z,53.50
2019-04-21T23:59:53.413Z,53.50
